Home > Products > Valid Products > TAF

000
FTUS46 KLOX 210600 AAA
TAFPMD
TAF AMD
KPMD 210600Z 2106/2206 20006KT P6SM SKC
     FM211300 VRB03KT P6SM SKC
     FM212100 24012KT P6SM SKC
     FM220400 22007KT P6SM SKC=



000
FTUS46 KLOX 210500 RRA
TAFSBP
TAF
KSBP 210540Z 2106/2206 VRB03KT P6SM SKC
     FM211900 31012KT P6SM SKC
     FM220200 VRB05KT P6SM SKC=



000
FTUS46 KLOX 210500 RRA
TAFPRB
TAF
KPRB 210540Z 2106/2206 29006KT P6SM SKC
     FM210800 VRB03KT P6SM SKC
     FM212300 30008KT P6SM SKC
     FM220400 VRB05KT P6SM SKC=



000
FTUS46 KLOX 210500 RRA
TAFSBA
TAF
KSBA 210540Z 2106/2206 VRB03KT P6SM SKC
     FM211700 16006KT P6SM SKC
     FM212100 24006KT P6SM SKC
     FM220200 VRB03KT P6SM SKC=



000
FTUS46 KLOX 210500 RRA
TAFSMX
TAF
KSMX 210540Z 2106/2206 VRB03KT P6SM SKC
     FM211100 VRB03KT 1/2SM FG VV002
     FM211500 VRB03KT 5SM HZ SCT004
     FM211800 30010KT P6SM SKC
     FM220300 VRB05KT P6SM SKC=



000
FTUS46 KLOX 210500
TAFLAX
TAF
KLAX 210538Z 2106/2212 VRB03KT P6SM FEW007
     FM211200 VRB03KT 2SM BR OVC006
     FM211500 VRB03KT 4SM BR BKN008
     FM211700 26010KT P6SM SKC
     FM220500 VRB03KT P6SM SKC
     FM221100 VRB03KT P6SM SCT007=



000
FTUS46 KLOX 210500
TAFLGB
TAF
KLGB 210538Z 2106/2206 VRB03KT P6SM FEW005
     FM211000 VRB03KT 2SM BR OVC005
     FM211500 VRB03KT 4SM BR OVC007
     FM211700 19006KT P6SM SKC
     FM212300 30006KT P6SM SKC
     FM220300 VRB03KT P6SM SKC=



000
FTUS46 KLOX 210500
TAFPMD
TAF
KPMD 210538Z 2106/2206 27012KT P6SM SKC
     FM211000 20006KT P6SM SKC
     FM211300 VRB03KT P6SM SKC
     FM212100 24012KT P6SM SKC
     FM220400 22007KT P6SM SKC=



000
FTUS46 KLOX 210500
TAFWJF
TAF
KWJF 210538Z 2106/2206 27012KT P6SM SKC
     FM211100 VRB03KT P6SM SKC
     FM211800 25010KT P6SM SKC
     FM212100 24015G25KT P6SM SKC
     FM220400 21012KT P6SM SKC=



000
FTUS46 KLOX 210500
TAFVNY
TAF
KVNY 210538Z 2106/2206 VRB03KT P6SM SKC
     FM212000 14008KT P6SM SKC
     FM220300 VRB03KT P6SM SKC=



000
FTUS46 KLOX 210500
TAFBUR
TAF
KBUR 210538Z 2106/2206 VRB05KT P6SM SKC
     FM212000 17008KT P6SM SKC
     FM220300 VRB03KT P6SM SKC=



000
FTUS46 KLOX 210400 AAA
TAFPMD
TAF AMD
KPMD 210439Z 2105/2124 27012KT P6SM SKC
     FM211000 20006KT P6SM SKC
     FM211300 VRB03KT P6SM SKC
     FM212100 24012KT P6SM SKC=



000
FTUS46 KLOX 210300 AAA
TAFLAX
TAF AMD
KLAX 210317Z 2103/2206 26008KT P6SM SKC
     FM210600 VRB03KT P6SM SKC
     FM211100 VRB03KT 2SM BR OVC006
     FM211500 VRB03KT 4SM BR BKN008
     FM211700 26010KT P6SM SKC
     FM220400 VRB03KT P6SM SKC=



000
FTUS46 KLOX 210300 AAA
TAFWJF
TAF AMD
KWJF 210317Z 2103/2124 27012KT P6SM SKC
     FM211100 VRB03KT P6SM SKC
     FM212100 24015G25KT P6SM SKC=



000
FTUS46 KLOX 202300 RRA
TAFSBA
TAF
KSBA 202345Z 2100/2124 23008KT P6SM SKC
     FM210200 VRB03KT P6SM SKC
     FM211700 16006KT P6SM SKC
     FM212100 24006KT P6SM SKC=



000
FTUS46 KLOX 202300 RRA
TAFLAX
TAF
KLAX 202345Z 2100/2206 26008KT P6SM SKC
     FM210400 VRB03KT P6SM SKC
     FM211000 VRB03KT 2SM BR OVC006
     FM211500 VRB03KT 4SM BR BKN008
     FM211700 26010KT P6SM SKC
     FM220400 VRB03KT P6SM SKC=



000
FTUS46 KLOX 202300 RRA
TAFPMD
TAF
KPMD 202345Z 2100/2124 25012KT P6SM SKC
     FM211000 20006KT P6SM SKC
     FM211300 VRB03KT P6SM SKC
     FM212100 24012KT P6SM SKC=



000
FTUS46 KLOX 202300 RRA
TAFPRB
TAF
KPRB 202345Z 2100/2124 32008KT P6SM SKC
     FM210700 VRB03KT P6SM SKC
     FM212300 30008KT P6SM SKC=



000
FTUS46 KLOX 202300 RRA
TAFBUR
TAF
KBUR 202345Z 2100/2124 17008KT P6SM SKC
     FM210600 VRB03KT P6SM SKC
     FM212000 17008KT P6SM SKC=



000
FTUS46 KLOX 202300 RRA
TAFLGB
TAF
KLGB 202345Z 2100/2124 30008KT P6SM SKC
     FM210300 VRB03KT P6SM SKC
     FM210900 VRB03KT 2SM BR OVC005
     FM211500 VRB03KT 4SM BR OVC007
     FM211700 19006KT P6SM SKC
     FM212300 30006KT P6SM SKC=



000
FTUS46 KLOX 202300 RRA
TAFVNY
TAF
KVNY 202345Z 2100/2124 10008KT P6SM SKC
     FM210200 VRB03KT P6SM SKC
     FM212000 14008KT P6SM SKC=



000
FTUS46 KLOX 202300 RRA
TAFWJF
TAF
KWJF 202345Z 2100/2124 25014G22KT P6SM SKC
     FM210400 24012KT P6SM SKC
     FM211100 VRB03KT P6SM SKC
     FM212100 24015G25KT P6SM SKC=



000
FTUS46 KLOX 202300 RRA
TAFSMX
TAF
KSMX 202345Z 2100/2124 30008KT P6SM SKC
     FM210400 VRB03KT P6SM SKC
     FM211100 VRB03KT 1/2SM FG VV002
     FM211500 VRB03KT 5SM HZ SCT004
     FM211800 30010KT P6SM SKC=



000
FTUS46 KLOX 202300 RRA
TAFSBP
TAF
KSBP 202345Z 2100/2124 31014G22KT P6SM SKC
     FM210200 31008KT P6SM SKC
     FM210500 VRB03KT P6SM SKC
     FM211900 31012KT P6SM SKC=



000
FTUS46 KLOX 202000 AAA
TAFLAX
TAF AMD
KLAX 202040Z 2021/2124 26012KT P6SM SKC
     FM210400 VRB03KT P6SM SKC
     FM210900 VRB03KT 2SM BR OVC005
     FM211600 VRB03KT 4SM BR BKN007
     FM211800 26010KT 6SM HZ SCT010=



000
FTUS46 KLOX 201700
TAFLGB
TAF
KLGB 201724Z 2018/2118 19006KT P6SM FEW010
     FM202200 30008KT P6SM SKC
     FM210300 VRB03KT P6SM SKC
     FM210900 VRB03KT 2SM BR OVC005
     FM211500 VRB03KT 4SM BR OVC007=



000
FTUS46 KLOX 201700
TAFSBA
TAF
KSBA 201724Z 2018/2118 16006KT P6SM SKC
     FM202000 23008KT P6SM SKC
     FM210200 VRB03KT P6SM SKC=



000
FTUS46 KLOX 201700
TAFLAX
TAF
KLAX 201724Z 2018/2124 26006KT P6SM FEW010
     FM202000 26012KT P6SM SKC
     FM210400 VRB03KT P6SM SKC
     FM210900 VRB03KT 2SM BR OVC005
     FM211600 VRB03KT 4SM BR BKN007
     FM211800 26010KT 6SM HZ SCT010=



000
FTUS46 KLOX 201700
TAFPMD
TAF
KPMD 201724Z 2018/2118 VRB03KT P6SM SKC
     FM202000 24008KT P6SM SKC
     FM202200 25014KT P6SM SKC
     FM210400 24008KT P6SM SKC
     FM211000 20006KT P6SM SKC=



000
FTUS46 KLOX 201700
TAFSBP
TAF
KSBP 201724Z 2018/2118 30007KT P6SM SKC
     FM202000 31014G20KT P6SM SKC
     FM210200 31008KT P6SM SKC
     FM210500 VRB03KT P6SM SKC=



000
FTUS46 KLOX 201700
TAFWJF
TAF
KWJF 201724Z 2018/2118 VRB03KT P6SM SKC
     FM202000 24010KT P6SM SKC
     FM202200 25018KT P6SM SKC
     FM210400 24012KT P6SM SKC
     FM211100 VRB03KT P6SM SKC=



000
FTUS46 KLOX 201700
TAFPRB
TAF
KPRB 201724Z 2018/2118 32008KT P6SM SKC
     FM210600 VRB03KT P6SM SKC=



000
FTUS46 KLOX 201700
TAFBUR
TAF
KBUR 201724Z 2018/2118 VRB03KT P6SM SKC
     FM202100 17008KT P6SM SKC
     FM210200 13007KT P6SM SKC
     FM210600 VRB03KT P6SM SKC=



000
FTUS46 KLOX 201700
TAFVNY
TAF
KVNY 201724Z 2018/2118 VRB03KT P6SM SKC
     FM202100 14008KT P6SM SKC
     FM210200 VRB05KT P6SM SKC=



000
FTUS46 KLOX 201700
TAFSMX
TAF
KSMX 201724Z 2018/2118 32006KT P6SM SKC
     FM202000 30012KT P6SM SKC
     FM210400 VRB03KT P6SM SKC
     FM210900 VRB03KT 1/2SM FG VV002
     FM211500 VRB03KT 2SM BR BKN002
     FM211700 VRB03KT P6SM SKC=



000
FTUS46 KLOX 201600 AAE
TAFSMX
TAF AMD
KSMX 201611Z 2016/2112 VRB03KT P6SM FEW002
     FM201800 32006KT P6SM SKC
     FM202100 30012KT P6SM SKC
     FM210400 VRB05KT P6SM SKC=



000
FTUS46 KLOX 201500 AAB
TAFPRB
TAF AMD
KPRB 201525Z 2015/2112 32006KT P6SM BKN004
     FM201630 32006KT P6SM SKC
     FM202200 29007KT P6SM SKC
     FM210400 VRB05KT P6SM SKC=



000
FTUS46 KLOX 201500 AAD
TAFSMX
TAF AMD
KSMX 201507Z 2015/2112 VRB03KT 1/4SM FG VV002
     FM201600 VRB03KT 6SM BR BKN004
     FM201800 32006KT P6SM SKC
     FM202100 30012KT P6SM SKC
     FM210400 VRB05KT P6SM SKC=



000
FTUS46 KLOX 201400 AAC
TAFLAX
TAF AMD
KLAX 201441Z 2015/2118 VRB03KT 6SM BR FEW008
     FM201700 26006KT P6SM FEW010
     FM202000 26012KT P6SM SKC
     FM210200 25009KT P6SM SKC
     FM210500 VRB03KT P6SM SKC
     FM211100 VRB03KT 5SM BR SKC=



000
FTUS46 KLOX 201300 AAB
TAFLAX
TAF AMD
KLAX 201322Z 2013/2118 VRB03KT P6SM FEW008 SCT200
     FM201400 VRB03KT 6SM BR SCT008
     FM201700 26006KT P6SM SCT010
     FM202000 26012KT P6SM SKC
     FM210200 25009KT P6SM SKC
     FM210500 VRB03KT P6SM SKC
     FM211100 VRB03KT 5SM BR SKC=



000
FTUS46 KLOX 201300 AAD
TAFSBP
TAF AMD
KSBP 201321Z 2013/2112 VRB03KT P6SM SCT001
     FM201700 30005KT P6SM FEW007
     FM202000 30012KT P6SM SKC
     FM202200 31015G20KT P6SM SKC
     FM210200 31008KT P6SM SKC
     FM210400 VRB05KT P6SM SKC=



000
FTUS46 KLOX 201300 AAB
TAFWJF
TAF AMD
KWJF 201304Z 2013/2112 25006KT P6SM SKC
     FM201800 29005KT P6SM SKC
     FM202000 23010KT P6SM SKC
     FM202200 24018G25KT P6SM SKC
     FM210400 24010KT P6SM SKC=



000
FTUS46 KLOX 201200 AAC
TAFSMX
TAF AMD
KSMX 201254Z 2013/2112 VRB03KT 1/2SM FG VV002
      TEMPO 2013/2016 1SM BR BKN002
     FM201600 VRB03KT 6SM BR BKN004
     FM201800 32006KT P6SM SKC
     FM202100 30012KT P6SM SKC
     FM210400 VRB05KT P6SM SKC=



000
FTUS46 KLOX 201200 AAC
TAFSBP
TAF AMD
KSBP 201254Z 2013/2112 VRB03KT P6SM SCT001
      TEMPO 2013/2016 2SM BR BKN001
     FM201600 VRB05KT 2SM BR BKN005
     FM201700 30005KT P6SM FEW007
     FM202000 30012KT P6SM SKC
     FM202200 31015G20KT P6SM SKC
     FM210200 31008KT P6SM SKC
     FM210400 VRB05KT P6SM SKC=



000
FTUS46 KLOX 201200 AAB
TAFSMX
TAF AMD
KSMX 201222Z 2012/2112 VRB03KT 1/4SM FG VV002
      TEMPO 2012/2016 1SM BR BKN002
     FM201600 VRB03KT 6SM BR BKN004
     FM201800 32006KT P6SM SKC
     FM202100 30012KT P6SM SKC
     FM210400 VRB05KT P6SM SKC=



000
FTUS46 KLOX 201200 AAB
TAFSBP
TAF AMD
KSBP 201221Z 2012/2112 VRB03KT 1/2SM FG VV001
      TEMPO 2012/2016 2SM BR BKN001
     FM201600 VRB05KT 2SM BR BKN005
     FM201700 30005KT P6SM FEW007
     FM202000 30012KT P6SM SKC
     FM202200 31015G20KT P6SM SKC
     FM210200 31008KT P6SM SKC
     FM210400 VRB05KT P6SM SKC=



000
FTUS46 KLOX 201200 AAB
TAFLGB
TAF AMD
KLGB 201220Z 2012/2112 VRB03KT P6SM SCT011
     FM201700 VRB03KT P6SM SCT250
     FM202000 20007KT P6SM SKC
     FM202300 29008KT P6SM SKC
     FM210300 VRB05KT P6SM SKC=



000
FTUS46 KLOX 201200 AAA
TAFPMD
TAF AMD
KPMD 201206Z 2012/2112 20006KT P6SM SKC
     FM201400 VRB03KT P6SM SKC
     FM201800 29005KT P6SM SKC
     FM202000 24010KT P6SM SKC
     FM202200 25014G22KT P6SM SKC
     FM210400 25010KT P6SM SKC=



000
FTUS46 KLOX 201200 AAA
TAFBUR
TAF AMD
KBUR 201206Z 2012/2112 VRB03KT P6SM SKC
     FM201800 14004KT P6SM SKC
     FM202100 18008KT P6SM SKC
     FM210200 VRB05KT P6SM SKC=



000
FTUS46 KLOX 201200 AAA
TAFVNY
TAF AMD
KVNY 201206Z 2012/2112 VRB05KT P6SM SKC
     FM202100 15008KT P6SM SKC
     FM210300 VRB05KT P6SM SKC=



000
FTUS46 KLOX 201200 AAA
TAFWJF
TAF AMD
KWJF 201206Z 2012/2112 27013KT P6SM SCT200
     FM201400 VRB03KT P6SM SKC
     FM201800 29005KT P6SM SKC
     FM202000 23010KT P6SM SKC
     FM202200 24018G25KT P6SM SKC
     FM210400 24010KT P6SM SKC=



000
FTUS46 KLOX 201200 AAA
TAFPRB
TAF AMD
KPRB 201205Z 2012/2112 VRB05KT P6SM SKC
     FM202200 29007KT P6SM SKC
     FM210400 VRB05KT P6SM SKC=



000
FTUS46 KLOX 201200 AAA
TAFSMX
TAF AMD
KSMX 201205Z 2012/2112 VRB03KT 1/4SM FG VV002
     FM201600 VRB03KT 6SM BR BKN004
     FM201800 32006KT P6SM SKC
     FM202100 30012KT P6SM SKC
     FM210400 VRB05KT P6SM SKC=



000
FTUS46 KLOX 201200 AAA
TAFLGB
TAF AMD
KLGB 201205Z 2012/2112 VRB03KT P6SM SCT011
      TEMPO 2012/2015 6SM BR BKN011
     FM201700 VRB03KT P6SM SCT250
     FM202000 20007KT P6SM SKC
     FM202300 29008KT P6SM SKC
     FM210300 VRB05KT P6SM SKC=



000
FTUS46 KLOX 201200 AAA
TAFLAX
TAF AMD
KLAX 201205Z 2012/2118 VRB03KT P6SM FEW008 SCT200
     FM201400 VRB03KT 6SM BR BKN008
     FM201700 26006KT P6SM SCT010
     FM202000 26012KT P6SM SKC
     FM210200 25009KT P6SM SKC
     FM210500 VRB03KT P6SM SKC
     FM211100 VRB03KT 5SM BR SKC=



000
FTUS46 KLOX 201200 AAA
TAFSBP
TAF AMD
KSBP 201205Z 2012/2112 VRB03KT 1SM BR VV001
     FM201600 VRB05KT 2SM BR BKN005
     FM201700 30005KT P6SM FEW007
     FM202000 30012KT P6SM SKC
     FM202200 31015G20KT P6SM SKC
     FM210200 31008KT P6SM SKC
     FM210400 VRB05KT P6SM SKC=



000
FTUS46 KLOX 201200 AAA
TAFSBA
TAF AMD
KSBA 201205Z 2012/2112 VRB05KT P6SM SKC
     FM201800 19005KT P6SM SKC
     FM202100 24007KT P6SM SKC
     FM210200 VRB05KT P6SM SKC=



000
FTUS46 KLOX 201100 AAD
TAFLGB
TAF AMD
KLGB 201116Z 2011/2106 VRB03KT P6SM SCT011
      TEMPO 2011/2015 6SM BR BKN011
     FM201700 VRB03KT P6SM SCT250
     FM202000 20007KT P6SM SKC
     FM202300 29008KT P6SM SKC
     FM210300 VRB05KT P6SM SKC=



000
FTUS46 KLOX 201100 AAC
TAFLGB
TAF AMD
KLGB 201101Z 2011/2106 VRB03KT P6SM OVC011
     FM201300 VRB03KT 6SM BR BKN015
     FM201800 VRB03KT P6SM SCT250
     FM202000 20007KT P6SM SKC
     FM202300 29008KT P6SM SKC
     FM210300 VRB05KT P6SM SKC=



000
FTUS46 KLOX 201100 AAC
TAFLAX
TAF AMD
KLAX 201101Z 2011/2112 VRB03KT P6SM FEW008 SCT200
     FM201400 VRB03KT 6SM BR BKN008
     FM201700 26006KT P6SM SCT010
     FM202000 26012KT P6SM SKC
     FM210200 25009KT P6SM SKC
     FM210500 VRB03KT P6SM SKC
     FM211100 VRB03KT 5SM BR SKC=



000
FTUS46 KLOX 200900 AAC
TAFSMX
TAF AMD
KSMX 200938Z 2010/2106 VRB03KT 1/4SM FG VV002
     FM201600 VRB03KT 6SM BR BKN004
     FM201800 32006KT P6SM SKC
     FM202100 30012KT P6SM SKC
     FM210400 VRB05KT P6SM SKC=



000
FTUS46 KLOX 200900 AAC
TAFSBP
TAF AMD
KSBP 200934Z 2010/2106 VRB03KT 1/4SM FG VV002
     FM201600 VRB05KT 2SM BR BKN005
     FM201700 30005KT P6SM FEW007
     FM202000 30012KT P6SM SKC
     FM202200 31015G20KT P6SM SKC
     FM210200 31008KT P6SM SKC
     FM210400 VRB05KT P6SM SKC=



000
FTUS46 KLOX 200900 AAB
TAFSBP
TAF AMD
KSBP 200922Z 2009/2106 VRB03KT 1/2SM FG OVC003
     FM201600 VRB05KT 2SM BR BKN005
     FM201700 30005KT P6SM FEW007
     FM202000 30012KT P6SM SKC
     FM202200 31015G20KT P6SM SKC
     FM210200 31008KT P6SM SKC
     FM210400 VRB05KT P6SM SKC=



000
FTUS46 KLOX 200900 AAA
TAFWJF
TAF AMD
KWJF 200904Z 2009/2106 26014G24KT P6SM SCT200
     FM201100 21005KT P6SM SKC
     FM201400 VRB03KT P6SM SKC
     FM201800 29005KT P6SM SKC
     FM202000 23010KT P6SM SKC
     FM202200 24018G25KT P6SM SKC
     FM210400 24010KT P6SM SKC=



000
FTUS46 KLOX 200900 AAB
TAFSMX
TAF AMD
KSMX 200903Z 2009/2106 VRB03KT 4SM BR OVC002
     FM201600 VRB03KT 6SM BR BKN004
     FM201800 32006KT P6SM SKC
     FM202100 30012KT P6SM SKC
     FM210400 VRB05KT P6SM SKC=



000
FTUS46 KLOX 200900 AAB
TAFLAX
TAF AMD
KLAX 200902Z 2009/2112 VRB03KT P6SM FEW008 SCT200
     FM201100 VRB03KT P6SM OVC008
     FM201300 VRB03KT 6SM BR BKN012
     FM201700 26006KT P6SM SCT015
     FM202000 26012KT P6SM SKC
     FM210200 25009KT P6SM SKC
     FM210500 VRB03KT P6SM SKC
     FM211100 VRB03KT 5SM BR SKC=



000
FTUS46 KLOX 200900 AAB
TAFLGB
TAF AMD
KLGB 200901Z 2009/2106 VRB03KT P6SM OVC009
     FM201300 VRB03KT 6SM BR BKN015
     FM201800 VRB03KT P6SM SCT250
     FM202000 20007KT P6SM SKC
     FM202300 29008KT P6SM SKC
     FM210300 VRB05KT P6SM SKC=



000
FTUS46 KLOX 200800 AAA
TAFLGB
TAF AMD
KLGB 200813Z 2008/2106 VRB03KT 6SM BR BKN010
     FM201300 VRB03KT P6SM BKN015
     FM201800 VRB03KT P6SM SCT250
     FM202000 20007KT P6SM SKC
     FM202300 29008KT P6SM SKC
     FM210300 VRB05KT P6SM SKC=



000
FTUS46 KLOX 200800 AAA
TAFLAX
TAF AMD
KLAX 200802Z 2008/2112 VRB03KT P6SM SCT200
     FM201100 VRB03KT 6SM BR BKN008
     FM201300 VRB03KT P6SM BKN012
     FM201700 26006KT P6SM SCT015
     FM202000 26012KT P6SM SKC
     FM210200 25009KT P6SM SKC
     FM210500 VRB03KT P6SM SKC
     FM211100 VRB03KT 5SM BR SKC=



000
FTUS46 KLOX 200700 AAA
TAFSMX
TAF AMD
KSMX 200702Z 2007/2106 VRB03KT P6SM SCT007
      TEMPO 2007/2010 BKN005
     FM201000 VRB03KT 6SM BR OVC005
     FM201200 VRB03KT P6SM SKC
     FM201800 32006KT P6SM SKC
     FM202100 30012KT P6SM SKC
     FM210400 VRB05KT P6SM SKC=



000
FTUS46 KLOX 200700 AAA
TAFSBP
TAF AMD
KSBP 200701Z 2007/2106 VRB05KT P6SM BKN007
      TEMPO 2013/2017 SCT007
     FM201700 30005KT P6SM FEW007
     FM202000 30012KT P6SM SKC
     FM202200 31015G20KT P6SM SKC
     FM210200 31008KT P6SM SKC
     FM210400 VRB05KT P6SM SKC=



000
FTUS46 KLOX 200500
TAFSMX
TAF
KSMX 200538Z 2006/2106 VRB03KT P6SM BKN007
      TEMPO 2006/2008 SCT005
     FM200800 VRB03KT 6SM BR OVC005
     FM201200 VRB03KT P6SM SKC
     FM201800 32006KT P6SM SKC
     FM202100 30012KT P6SM SKC
     FM210400 VRB05KT P6SM SKC=



000
FTUS46 KLOX 200500
TAFPRB
TAF
KPRB 200538Z 2006/2106 32010KT P6SM SKC
     FM200800 VRB03KT P6SM SKC
     FM202200 29007KT P6SM SKC
     FM210400 VRB05KT P6SM SKC=



000
FTUS46 KLOX 200500
TAFSBP
TAF
KSBP 200538Z 2006/2106 VRB05KT P6SM SCT007
     FM201800 30005KT P6SM SKC
     FM202000 30012KT P6SM SKC
     FM202200 31015G20KT P6SM SKC
     FM210200 31008KT P6SM SKC
     FM210400 VRB05KT P6SM SKC=



000
FTUS46 KLOX 200500
TAFSBA
TAF
KSBA 200538Z 2006/2106 VRB03KT P6SM SKC WS010/34025KT
     FM201000 VRB03KT P6SM SKC
     FM201800 19005KT P6SM SKC
     FM202100 24007KT P6SM SKC
     FM210200 VRB05KT P6SM SKC=



000
FTUS46 KLOX 200500
TAFLAX
TAF
KLAX 200533Z 2006/2112 VRB03KT P6SM SCT200
     FM200900 VRB03KT 6SM BR BKN008
     FM201300 VRB03KT P6SM BKN012
     FM201700 26006KT P6SM SCT015
     FM202000 26012KT P6SM SKC
     FM210200 25009KT P6SM SKC
     FM210500 VRB03KT P6SM SKC
     FM211100 VRB03KT 5SM BR SKC=



000
FTUS46 KLOX 200500
TAFWJF
TAF
KWJF 200533Z 2006/2106 26014KT P6SM SCT200
     FM200800 21005KT P6SM SKC
     FM201400 VRB03KT P6SM SKC
     FM201800 29005KT P6SM SKC
     FM202000 23010KT P6SM SKC
     FM202200 24018G25KT P6SM SKC
     FM210400 24010KT P6SM SKC=



000
FTUS46 KLOX 200500
TAFBUR
TAF
KBUR 200533Z 2006/2106 17007KT P6SM SCT200
     FM200800 VRB03KT P6SM SKC
     FM201800 14004KT P6SM SKC
     FM202100 18008KT P6SM SKC
     FM210200 VRB05KT P6SM SKC=



000
FTUS46 KLOX 200500
TAFPMD
TAF
KPMD 200533Z 2006/2106 23008KT P6SM SKC
     FM201400 VRB03KT P6SM SKC
     FM201800 29005KT P6SM SKC
     FM202000 24010KT P6SM SKC
     FM202200 25014G22KT P6SM SKC
     FM210400 25010KT P6SM SKC=



000
FTUS46 KLOX 200500
TAFVNY
TAF
KVNY 200533Z 2006/2106 VRB05KT P6SM SKC
     FM202100 15008KT P6SM SKC
     FM210300 VRB05KT P6SM SKC=



000
FTUS46 KLOX 200500
TAFLGB
TAF
KLGB 200533Z 2006/2106 VRB03KT P6SM SCT200
     FM200900 VRB03KT 6SM BR BKN010
     FM201300 VRB03KT P6SM BKN015
     FM201800 VRB03KT P6SM SCT250
     FM202000 20007KT P6SM SKC
     FM202300 29008KT P6SM SKC
     FM210300 VRB05KT P6SM SKC=



000
FTUS46 KLOX 200500 AAA
TAFWJF
TAF AMD
KWJF 200514Z 2005/2024 26014KT P6SM SCT200
     FM200800 21005KT P6SM SKC
     FM201400 VRB03KT P6SM SKC
     FM201800 29005KT P6SM SKC
     FM202000 23010KT P6SM SKC
     FM202200 24018G25KT P6SM SKC=



000
FTUS46 KLOX 200500 AAB
TAFSMX
TAF AMD
KSMX 200514Z 2005/2024 VRB03KT P6SM BKN007
      TEMPO 2005/2008 SCT005
     FM200800 VRB03KT 6SM BR OVC005
     FM201200 VRB03KT P6SM SKC
     FM201800 32006KT P6SM SKC
     FM202100 30012KT P6SM SKC=



000
FTUS46 KLOX 200400 AAA
TAFSMX
TAF AMD
KSMX 200421Z 2004/2024 VRB03KT P6SM BKN007
     FM200600 VRB03KT 6SM BR OVC005
     FM201200 VRB03KT P6SM SKC
     FM201800 32006KT P6SM SKC
     FM202100 30012KT P6SM SKC=



000
FTUS46 KLOX 200200 AAA
TAFPMD
TAF AMD
KPMD 200201Z 2002/2024 28020G28KT P6SM SKC
     FM200400 23012KT P6SM SKC
     FM200600 23008KT P6SM SKC
     FM201400 VRB03KT P6SM SKC
     FM201800 29005KT P6SM SKC
     FM202000 24010KT P6SM SKC
     FM202200 25014G22KT P6SM SKC=



000
FTUS46 KLOX 200200 AAA
TAFPRB
TAF AMD
KPRB 200200Z 2002/2024 32012G20KT P6SM SKC
     FM200400 32009KT P6SM SKC
     FM200700 VRB03KT P6SM SKC
     FM202200 29007KT P6SM SKC=



000
FTUS46 KLOX 192300 RRA
TAFPMD
TAF
KPMD 192340Z 2000/2024 25014G22KT P6SM FEW080 SCT200
     FM200400 23008KT P6SM SKC
     FM201400 VRB03KT P6SM SKC
     FM201800 29005KT P6SM SKC
     FM202000 24010KT P6SM SKC
     FM202200 25014G22KT P6SM SKC=



000
FTUS46 KLOX 192300 RRA
TAFLAX
TAF
KLAX 192340Z 2000/2106 26011KT P6SM SCT150 BKN200
     FM200400 VRB03KT P6SM SCT200
     FM200900 VRB03KT 6SM BR BKN008
     FM201300 VRB03KT P6SM BKN012
     FM201700 26006KT P6SM SCT015
     FM202000 26012KT P6SM SKC
     FM210200 25009KT P6SM SKC
     FM210500 VRB03KT P6SM SKC=



000
FTUS46 KLOX 192300 RRA
TAFSBP
TAF
KSBP 192340Z 2000/2024 31015KT P6SM SCT250
     FM200300 30010KT P6SM SKC
     FM200500 30006KT P6SM SKC
     FM201000 VRB03KT P6SM SKC
     FM201800 30005KT P6SM SKC
     FM202000 30012KT P6SM SKC
     FM202200 31015G20KT P6SM SKC=



000
FTUS46 KLOX 192300 RRA
TAFBUR
TAF
KBUR 192340Z 2000/2024 17007KT P6SM SCT200
     FM200400 VRB03KT P6SM SKC
     FM201800 14004KT P6SM SKC
     FM202100 18008KT P6SM SKC=



000
FTUS46 KLOX 192300 RRA
TAFSMX
TAF
KSMX 192340Z 2000/2024 30016KT P6SM SCT250
     FM200200 30010KT P6SM SKC
     FM200600 VRB03KT 6SM BR BKN008
     FM201200 VRB03KT P6SM SKC
     FM201800 32006KT P6SM SKC
     FM202100 30012KT P6SM SKC=



000
FTUS46 KLOX 192300 RRA
TAFSBA
TAF
KSBA 192340Z 2000/2024 22006KT P6SM SCT250
     FM200200 VRB03KT P6SM SKC WS010/34025KT
     FM201000 VRB03KT P6SM SKC
     FM201800 19005KT P6SM SKC
     FM202100 24007KT P6SM SKC=



000
FTUS46 KLOX 192300 RRA
TAFVNY
TAF
KVNY 192340Z 2000/2024 14008KT P6SM SCT200
     FM200400 VRB03KT P6SM SKC
     FM202100 15008KT P6SM SKC=



000
FTUS46 KLOX 192300 RRA
TAFWJF
TAF
KWJF 192340Z 2000/2024 26017G24KT P6SM SCT200
     FM200500 24010KT P6SM SKC
     FM200800 21005KT P6SM SKC
     FM201400 VRB03KT P6SM SKC
     FM201800 29005KT P6SM SKC
     FM202000 23010KT P6SM SKC
     FM202200 24018G25KT P6SM SKC=



000
FTUS46 KLOX 192300 RRA
TAFPRB
TAF
KPRB 192340Z 2000/2024 32011KT P6SM SCT250
     FM200700 VRB03KT P6SM SKC
     FM202200 29007KT P6SM SKC=



000
FTUS46 KLOX 192300 RRA
TAFLGB
TAF
KLGB 192340Z 2000/2024 30008KT P6SM SCT200
     FM200500 VRB03KT P6SM SCT200
     FM200900 VRB03KT 6SM BR BKN010
     FM201300 VRB03KT P6SM BKN015
     FM201800 VRB03KT P6SM SCT250
     FM202000 20007KT P6SM SKC
     FM202300 29008KT P6SM SKC=



000
FTUS46 KLOX 192000 AAA
TAFLAX
TAF AMD
KLAX 192053Z 1921/2024 25015KT P6SM FEW045 SCT150 BKN220
     FM200400 VRB03KT P6SM SCT200
     FM200900 VRB03KT 6SM BR BKN010
     FM201300 VRB03KT P6SM BKN015
     FM201700 26006KT P6SM SCT015 BKN200
     FM202000 26012KT P6SM SCT015=



000
FTUS46 KLOX 191800 AAA
TAFSMX
TAF AMD
KSMX 191800Z 1918/2018 VRB03KT P6SM FEW014
     FM191900 30010KT P6SM SKC
     FM192100 30015G22KT P6SM SKC
     FM200300 30008KT P6SM SKC
     FM200600 VRB03KT P6SM SKC
     FM201100 VRB03KT 6SM BR SCT007=



000
FTUS46 KLOX 191700 AAA
TAFSBP
TAF AMD
KSBP 191759Z 1918/2018 00000KT P6SM SCT013
     FM191900 30008KT P6SM SCT013
     FM192100 30015G22KT P6SM SKC
     FM200300 30008KT P6SM SKC
     FM200500 VRB03KT P6SM SKC=



000
FTUS46 KLOX 191700
TAFBUR
TAF
KBUR 191735Z 1918/2018 24003KT P6SM SKC
     FM191900 18008KT P6SM SKC
     FM200400 VRB03KT P6SM SCT200=



000
FTUS46 KLOX 191700
TAFPMD
TAF
KPMD 191735Z 1918/2018 30005KT P6SM SKC
     FM192200 26015KT P6SM SCT200
     FM200400 23008KT P6SM SCT200=



000
FTUS46 KLOX 191700
TAFSBP
TAF
KSBP 191735Z 1918/2018 30004KT P6SM OVC011
     FM191900 30008KT P6SM SCT013
     FM192100 30015G22KT P6SM SKC
     FM200300 30008KT P6SM SKC
     FM200500 VRB03KT P6SM SKC=



000
FTUS46 KLOX 191700
TAFSBA
TAF
KSBA 191735Z 1918/2018 00000KT P6SM SKC
     FM192100 23007KT P6SM SKC
     FM200100 VRB03KT P6SM SKC WS010/34025KT
     FM200600 VRB03KT P6SM SKC=



000
FTUS46 KLOX 191700
TAFWJF
TAF
KWJF 191735Z 1918/2018 26007KT P6SM SKC
     FM192000 25010KT P6SM SCT200
     FM192300 25015G25KT P6SM SCT200
     FM200500 24010KT P6SM SCT200=



000
FTUS46 KLOX 191700
TAFVNY
TAF
KVNY 191735Z 1918/2018 00000KT P6SM SKC
     FM191900 17008KT P6SM SKC
     FM200400 VRB03KT P6SM SCT200=



000
FTUS46 KLOX 191700
TAFSMX
TAF
KSMX 191735Z 1918/2018 00000KT P6SM BKN012
     FM191900 30010KT P6SM SCT013
     FM192100 30015G22KT P6SM SKC
     FM200300 30008KT P6SM SKC
     FM200600 VRB03KT P6SM SKC
     FM201100 VRB03KT 6SM BR SCT007=



000
FTUS46 KLOX 191700
TAFLAX
TAF
KLAX 191735Z 1918/2024 26004KT P6SM FEW015 SCT220
     FM200400 VRB03KT P6SM SCT200
     FM200900 VRB03KT 6SM BR BKN010
     FM201300 VRB03KT P6SM BKN015
     FM201700 26006KT P6SM SCT015 BKN200
     FM202000 26012KT P6SM SCT015=



000
FTUS46 KLOX 191700
TAFPRB
TAF
KPRB 191735Z 1918/2018 32009KT P6SM SCT012
     FM192100 32008KT P6SM SKC
     FM200500 VRB03KT P6SM SKC=



000
FTUS46 KLOX 191700
TAFLGB
TAF
KLGB 191735Z 1918/2018 30003KT P6SM SKC
     FM191900 20008KT P6SM SKC
     FM200000 29008KT P6SM SCT200
     FM200500 VRB03KT P6SM SCT200
     FM200900 VRB03KT 6SM BR BKN010
     FM201300 VRB03KT P6SM BKN015=



000
FTUS46 KLOX 191400 AAA
TAFLAX
TAF AMD
KLAX 191452Z 1915/2018 23003KT 6SM BR SCT011 SCT200
     FM191800 26013KT P6SM SCT200
     FM200400 VRB03KT P6SM SCT200
     FM200900 VRB03KT P6SM BKN015
     FM201300 VRB03KT 6SM BR OVC010
     FM201600 18006KT P6SM SCT015 BKN200=



000
FTUS46 KLOX 191400 AAA
TAFPRB
TAF AMD
KPRB 191400Z 1914/2012 32006KT P6SM OVC003
     FM191700 VRB03KT P6SM SCT250
     FM192100 32008KT P6SM SKC
     FM200500 VRB03KT P6SM SKC=



000
FTUS46 KLOX 191300 AAA
TAFSMX
TAF AMD
KSMX 191315Z 1913/2012 30006KT P6SM OVC008
     FM191400 VRB03KT P6SM OVC008
     FM191800 30007KT P6SM SKC
     FM192100 30015G22KT P6SM SKC
     FM200300 30008KT P6SM SKC
     FM200600 VRB03KT P6SM SKC
     FM201100 VRB03KT 6SM BR SKC=



000
FTUS46 KLOX 191300 AAA
TAFVNY
TAF AMD
KVNY 191315Z 1913/2012 VRB03KT P6SM SKC
     FM191700 14008KT P6SM SCT200
     FM200400 VRB03KT P6SM SCT200=



000
FTUS46 KLOX 191100
TAFLGB
TAF
KLGB 191134Z 1912/2012 VRB03KT P6SM SKC
     FM191800 20007KT P6SM SCT200
     FM200000 29008KT P6SM SCT200
     FM200500 VRB03KT P6SM SCT200=



000
FTUS46 KLOX 191100
TAFSBP
TAF
KSBP 191134Z 1912/2012 VRB05KT P6SM OVC009
     FM191800 30007KT P6SM SKC
     FM192100 30015G22KT P6SM SKC
     FM200300 30008KT P6SM SKC
     FM200500 VRB03KT P6SM SKC=



000
FTUS46 KLOX 191100
TAFVNY
TAF
KVNY 191134Z 1912/2012 VRB03KT P6SM OVC015
     FM191700 14008KT P6SM SCT200
     FM200400 VRB03KT P6SM SCT200=



000
FTUS46 KLOX 191100
TAFBUR
TAF
KBUR 191134Z 1912/2012 VRB03KT P6SM SKC
     FM191700 17008KT P6SM SCT200
     FM200400 VRB03KT P6SM SCT200=



000
FTUS46 KLOX 191100
TAFPMD
TAF
KPMD 191134Z 1912/2012 17006KT P6SM SKC
     FM192200 26015KT P6SM SCT200
     FM200400 23008KT P6SM SCT200=



000
FTUS46 KLOX 191100
TAFWJF
TAF
KWJF 191134Z 1912/2012 26006KT P6SM SKC
     FM191400 VRB05KT P6SM SKC
     FM192000 25010KT P6SM SCT200
     FM192300 25020G30KT P6SM SCT200
     FM200500 24010KT P6SM SCT200=



000
FTUS46 KLOX 191100
TAFLAX
TAF
KLAX 191134Z 1912/2018 VRB03KT P6SM SKC
     FM191800 26013KT P6SM SCT200
     FM200400 VRB03KT P6SM SCT200
     FM200900 VRB03KT P6SM BKN015
     FM201300 VRB03KT 6SM BR OVC010
     FM201600 18006KT P6SM SCT015 BKN200=



000
FTUS46 KLOX 191100
TAFPRB
TAF
KPRB 191134Z 1912/2012 VRB03KT P6SM OVC010
     FM191600 VRB03KT P6SM SCT250
     FM192100 32008KT P6SM SKC
     FM200500 VRB03KT P6SM SKC=



000
FTUS46 KLOX 191100
TAFSBA
TAF
KSBA 191134Z 1912/2012 VRB03KT P6SM SKC
     FM191800 17006KT P6SM SCT200
     FM192100 23007KT P6SM SKC
     FM200100 VRB03KT P6SM SKC WS010/34025KT
     FM200600 VRB03KT P6SM SKC=



000
FTUS46 KLOX 191100
TAFSMX
TAF
KSMX 191134Z 1912/2012 27005KT P6SM OVC010
     FM191400 VRB03KT P6SM OVC008
     FM191800 30007KT P6SM SKC
     FM192100 30015G22KT P6SM SKC
     FM200300 30008KT P6SM SKC
     FM200600 VRB03KT P6SM SKC
     FM201100 VRB03KT 6SM BR SKC=



000
FTUS46 KLOX 190500
TAFLAX
TAF
KLAX 190532Z 1906/2012 26006KT P6SM BKN200
     FM191100 VRB03KT P6SM OVC015
     FM191800 26010KT P6SM SCT250
     FM200400 VRB03KT P6SM SCT250
     FM201000 VRB03KT P6SM OVC008=



000
FTUS46 KLOX 190500
TAFSMX
TAF
KSMX 190532Z 1906/2006 VRB05KT P6SM OVC015
     FM191800 30007KT P6SM SKC
     FM192100 30015G22KT P6SM SKC
     FM200300 30008KT P6SM SKC=



000
FTUS46 KLOX 190500
TAFBUR
TAF
KBUR 190532Z 1906/2006 VRB03KT P6SM BKN200
     FM191200 VRB03KT P6SM OVC015
     FM191700 17008KT P6SM SCT250
     FM200400 VRB03KT P6SM SCT250=



000
FTUS46 KLOX 190500
TAFWJF
TAF
KWJF 190532Z 1906/2006 25009KT P6SM BKN200
     FM191200 VRB03KT P6SM SCT200
     FM192000 25010KT P6SM SCT200
     FM192300 25018G25KT P6SM SCT200
     FM200500 25015KT P6SM SCT200=



000
FTUS46 KLOX 190500
TAFSBP
TAF
KSBP 190532Z 1906/2006 VRB05KT P6SM OVC015
     FM191800 30007KT P6SM SKC
     FM192100 30015G22KT P6SM SKC
     FM200300 30008KT P6SM SKC=



000
FTUS46 KLOX 190500
TAFLGB
TAF
KLGB 190532Z 1906/2006 VRB03KT P6SM BKN200
     FM191000 VRB03KT P6SM OVC015
     FM191800 20007KT P6SM SCT250
     FM200000 29008KT P6SM SCT250
     FM200500 VRB03KT P6SM SCT250=



000
FTUS46 KLOX 190500
TAFSBA
TAF
KSBA 190532Z 1906/2006 VRB03KT P6SM SKC
     FM191200 VRB03KT P6SM BKN015
     FM191800 17006KT P6SM SCT025
     FM192100 23007KT P6SM SKC
     FM200200 VRB03KT P6SM SKC WS010/34025KT=



000
FTUS46 KLOX 190500
TAFPMD
TAF
KPMD 190532Z 1906/2006 24007KT P6SM BKN200
     FM191200 VRB03KT P6SM SCT200
     FM192200 26015KT P6SM SCT200
     FM200400 25008KT P6SM SCT200=



000
FTUS46 KLOX 190500
TAFVNY
TAF
KVNY 190532Z 1906/2006 VRB03KT P6SM BKN200
     FM191200 VRB03KT P6SM OVC015
     FM191700 14008KT P6SM SCT250
     FM200400 VRB03KT P6SM SCT250=



000
FTUS46 KLOX 190500
TAFPRB
TAF
KPRB 190532Z 1906/2006 21008KT P6SM SCT250
     FM190700 VRB03KT P6SM SCT250
     FM190900 VRB03KT P6SM OVC010
     FM191600 VRB03KT P6SM SCT250
     FM192100 32008KT P6SM SKC
     FM200500 VRB03KT P6SM SKC=



000
FTUS46 KLOX 190300 AAA
TAFLAX
TAF AMD
KLAX 190318Z 1903/2006 26009KT P6SM FEW120 BKN200
     FM190600 26008KT P6SM BKN025
     FM190800 28006KT P6SM OVC018
     FM191100 28005KT P6SM OVC015
     FM191400 VRB03KT P6SM OVC020
     FM191800 25007KT P6SM OVC025
     FM192000 25011KT P6SM SCT030 SCT250
     FM200300 25008KT P6SM SCT250=



000
FTUS46 KLOX 190300 AAA
TAFLGB
TAF AMD
KLGB 190318Z 1903/1924 30005KT P6SM SCT035
     FM190500 VRB03KT P6SM BKN030
     FM190700 VRB03KT P6SM OVC025
     FM191000 VRB03KT P6SM OVC018
     FM191800 VRB03KT P6SM OVC015
     FM192000 22009KT P6SM SCT020 SCT250=



000
FTUS46 KLOX 190300 AAA
TAFSBP
TAF AMD
KSBP 190317Z 1903/1924 31006KT P6SM OVC017
     FM191800 30006KT P6SM SKC
     FM192100 30014KT P6SM SKC=



000
FTUS46 KLOX 190200 AAA
TAFSMX
TAF AMD
KSMX 190209Z 1902/1924 30007KT P6SM OVC018
     FM190500 VRB03KT 4SM BR OVC015
     FM191400 VRB03KT P6SM OVC017
     FM191800 31009KT P6SM SKC
     FM192100 30014KT P6SM SKC=



000
FTUS46 KLOX 182300 RRA
TAFPMD
TAF
KPMD 182340Z 1900/1924 25016KT P6SM SCT250
     FM190300 23011KT P6SM BKN250
     FM190500 21005KT P6SM BKN250
     FM191200 VRB03KT P6SM SCT250
     FM192000 29005KT P6SM SCT250
     FM192200 26014KT P6SM SCT250=



000
FTUS46 KLOX 182300 RRA
TAFBUR
TAF
KBUR 182340Z 1900/1924 19009KT P6SM SCT040
     FM190300 VRB03KT P6SM SCT030
     FM190500 VRB03KT P6SM OVC025
     FM191400 VRB03KT 5SM HZ OVC020
     FM191700 VRB03KT P6SM SCT020 BKN250
     FM192000 18007KT P6SM SCT250=



000
FTUS46 KLOX 182300 RRA
TAFLAX
TAF
KLAX 182340Z 1900/2006 26012KT P6SM SCT040 BKN120 BKN200
     FM190300 26008KT P6SM BKN030
     FM190700 28006KT P6SM OVC018
     FM191000 28005KT P6SM OVC015
     FM191400 VRB03KT P6SM OVC020
     FM191800 25007KT P6SM OVC025
     FM192000 25011KT P6SM SCT030 SCT250
     FM200300 25008KT P6SM SCT250=



000
FTUS46 KLOX 182300 RRA
TAFSBP
TAF
KSBP 182340Z 1900/1924 31009KT P6SM OVC028
     FM190300 30009KT P6SM OVC022
     FM190800 30005KT P6SM OVC016
     FM191800 30006KT P6SM SKC
     FM192100 30014KT P6SM SKC=



000
FTUS46 KLOX 182300 RRA
TAFPRB
TAF
KPRB 182340Z 1900/1924 21013G20KT P6SM SCT250
     FM190300 21008KT P6SM SCT250
     FM190700 VRB03KT P6SM SCT250
     FM190900 VRB03KT P6SM OVC010
     FM191500 VRB03KT P6SM SCT250
     FM192100 34007KT P6SM SKC=



000
FTUS46 KLOX 182300 RRA
TAFSBA
TAF
KSBA 182340Z 1900/1924 25008KT P6SM BKN035
     FM190400 VRB03KT P6SM SCT025
     FM190800 VRB03KT P6SM BKN015
     FM191800 20006KT P6SM SCT025
     FM192100 23007KT P6SM SCT250=



000
FTUS46 KLOX 182300 RRA
TAFLGB
TAF
KLGB 182340Z 1900/1924 19008KT P6SM SCT040
     FM190300 23005KT P6SM BKN030
     FM190500 VRB03KT P6SM OVC025
     FM190900 VRB03KT P6SM OVC018
     FM191800 VRB03KT P6SM OVC015
     FM192000 22009KT P6SM SCT020 SCT250=



000
FTUS46 KLOX 182300 RRA
TAFWJF
TAF
KWJF 182340Z 1900/1924 24016G25KT P6SM SCT250
     FM190200 23013KT P6SM BKN250
     FM190400 23008KT P6SM BKN250
     FM190900 20005KT P6SM SCT250
     FM191400 VRB03KT P6SM SCT250
     FM192000 24009KT P6SM SCT250
     FM192200 25018G25KT P6SM SCT250=



000
FTUS46 KLOX 182300 RRA
TAFSMX
TAF
KSMX 182340Z 1900/1924 32011KT P6SM BKN025
     FM190300 29007KT P6SM OVC020
     FM190500 VRB03KT 4SM BR OVC015
     FM191400 VRB03KT P6SM OVC017
     FM191800 31009KT P6SM SKC
     FM192100 30014KT P6SM SKC=



000
FTUS46 KLOX 182300 RRA
TAFVNY
TAF
KVNY 182340Z 1900/1924 16007KT P6SM SCT035
     FM190300 16005KT P6SM SCT025
     FM190500 VRB03KT P6SM OVC020
     FM191800 VRB03KT P6SM SCT025 BKN250
     FM192100 14006KT P6SM SCT250=



000
FTUS46 KLOX 182200 AAA
TAFSBP
TAF AMD
KSBP 182208Z 1822/1918 31011KT P6SM BKN025
     FM190300 30008KT P6SM BKN015
     FM190600 VRB03KT 5SM BR OVC008
     FM191600 VRB03KT P6SM OVC012=



000
FTUS46 KLOX 182100 AAA
TAFSMX
TAF AMD
KSMX 182107Z 1821/1918 30011KT P6SM BKN020
     FM190300 30006KT 4SM BR OVC008
     FM191100 VRB03KT 1SM BR OVC005
     FM191400 VRB03KT 4SM BR OVC008=



000
FTUS46 KLOX 181700 RRA
TAFSMX
TAF
KSMX 181740Z 1818/1918 30011KT P6SM OVC018
     FM190300 30006KT 4SM BR OVC008
     FM191100 VRB03KT 1SM BR OVC005
     FM191400 VRB03KT 4SM BR OVC008=



000
FTUS46 KLOX 181700 RRA
TAFPRB
TAF
KPRB 181740Z 1818/1918 VRB03KT P6SM BKN012
     FM181830 21008KT P6SM SCT100
     FM182200 22012G20KT P6SM SCT100
     FM190300 21008KT P6SM SCT080
     FM190500 VRB03KT P6SM SCT080
     FM191300 VRB03KT 4SM BR BKN006=



000
FTUS46 KLOX 181700 RRA
TAFBUR
TAF
KBUR 181740Z 1818/1918 16005KT P6SM OVC035
     FM182000 18008KT P6SM BKN035
     FM190400 VRB03KT P6SM OVC015=



000
FTUS46 KLOX 181700 RRA
TAFLAX
TAF
KLAX 181740Z 1818/1924 12006KT P6SM BKN040 BKN120
     FM181900 19008KT P6SM BKN040 BKN120
     FM182100 25010KT P6SM BKN035 BKN120
     FM190300 VRB04KT P6SM OVC015
     FM191500 VRB04KT P6SM BKN025=



000
FTUS46 KLOX 181700 RRA
TAFPMD
TAF
KPMD 181740Z 1818/1918 22012KT P6SM BKN150
     FM182100 23015G22KT P6SM SCT080 BKN150
     FM190300 23010KT P6SM BKN150
     FM190900 VRB04KT P6SM SCT150=



000
FTUS46 KLOX 181700 RRA
TAFVNY
TAF
KVNY 181740Z 1818/1918 15005KT P6SM OVC035
     FM182000 18008KT P6SM BKN035
     FM190400 VRB03KT P6SM OVC015=



000
FTUS46 KLOX 181700 RRA
TAFSBP
TAF
KSBP 181740Z 1818/1918 32010KT P6SM OVC018
     FM182100 30011KT P6SM SCT020 BKN100
     FM190300 30008KT P6SM BKN014
     FM190600 VRB03KT 5SM BR OVC008
     FM191600 VRB03KT P6SM OVC012=



000
FTUS46 KLOX 181700 RRA
TAFWJF
TAF
KWJF 181740Z 1818/1918 25015KT P6SM BKN150
     FM182100 23018G28KT P6SM SCT080 BKN150
     FM190300 23014KT P6SM BKN150
     FM190900 VRB04KT P6SM SCT150=



000
FTUS46 KLOX 181700 RRA
TAFSBA
TAF
KSBA 181740Z 1818/1918 VRB03KT P6SM OVC030
     FM182200 26007KT P6SM SCT035 SCT120
     FM190400 VRB03KT P6SM SCT025 SCT120
     FM190800 VRB03KT P6SM BKN015=



000
FTUS46 KLOX 181700 RRA
TAFLGB
TAF
KLGB 181740Z 1818/1918 VRB03KT P6SM BKN040
     FM182000 19008KT P6SM SCT035 BKN120
     FM190300 VRB03KT P6SM OVC015
     FM191500 VRB03KT P6SM BKN025=



000
FTUS46 KLOX 181600 AAB
TAFSMX
TAF AMD
KSMX 181608Z 1816/1912 34006KT P6SM SCT012 OVC020
     FM182100 30015KT P6SM BKN020 BKN200
     FM190300 30006KT P6SM OVC020
     FM190700 VRB03KT P6SM OVC014=



000
FTUS46 KLOX 181600 AAA
TAFPRB
TAF AMD
KPRB 181606Z 1816/1912 VRB03KT P6SM OVC012
     FM181830 VRB03KT P6SM SCT015 BKN200
     FM182200 22012KT P6SM BKN200
     FM190500 VRB03KT P6SM BKN200
     FM191000 VRB03KT P6SM BKN015=



000
FTUS46 KLOX 181600 AAA
TAFVNY
TAF AMD
KVNY 181605Z 1816/1912 15005KT P6SM OVC035
     FM181800 17006KT P6SM OVC035
     FM182200 18008KT P6SM BKN035
     FM190400 VRB03KT P6SM OVC025=



000
FTUS46 KLOX 181600 AAA
TAFBUR
TAF AMD
KBUR 181605Z 1816/1912 16005KT P6SM OVC035
     FM181800 18006KT P6SM OVC035
     FM182200 18008KT P6SM BKN035
     FM190400 VRB03KT P6SM OVC025=



000
FTUS46 KLOX 181400 AAA
TAFLAX
TAF AMD
KLAX 181441Z 1815/1918 12006KT P6SM BKN035
     FM181700 18008KT P6SM BKN035
     FM182000 25012KT P6SM BKN035
     FM190500 26007KT P6SM OVC025
     FM191300 VRB03KT P6SM OVC025=



000
FTUS46 KLOX 181200 AAA
TAFLGB
TAF AMD
KLGB 181234Z 1813/1912 VRB03KT P6SM BKN035
     FM181800 19009KT P6SM OVC035
     FM190400 VRB03KT P6SM OVC025=



000
FTUS46 KLOX 181200 AAA
TAFSMX
TAF AMD
KSMX 181233Z 1813/1912 VRB03KT 3SM BR OVC012
     FM181500 VRB03KT 5SM BR OVC014
     FM181800 30007KT P6SM OVC015
     FM182100 30015KT P6SM BKN020 BKN200
     FM190300 30006KT P6SM OVC020
     FM190700 VRB03KT P6SM OVC014=



000
FTUS46 KLOX 181100 RRA
TAFWJF
TAF
KWJF 181143Z 1812/1912 25008KT P6SM BKN200
     FM182100 23018G28KT P6SM BKN200
     FM190300 23014KT P6SM BKN200
     FM190900 VRB04KT P6SM BKN200=



000
FTUS46 KLOX 181100 RRA
TAFPMD
TAF
KPMD 181143Z 1812/1912 22008KT P6SM BKN200
     FM182100 23015G22KT P6SM BKN200
     FM190300 23010KT P6SM BKN200
     FM190900 VRB04KT P6SM BKN200=



000
FTUS46 KLOX 181100 RRA
TAFSMX
TAF
KSMX 181143Z 1812/1912 VRB03KT 6SM BR OVC008
     FM181500 VRB03KT P6SM OVC014
     FM181800 30007KT P6SM OVC015
     FM182100 30015KT P6SM BKN020 BKN200
     FM190300 30006KT P6SM OVC020
     FM190700 VRB03KT P6SM OVC014=



000
FTUS46 KLOX 181100 RRA
TAFLGB
TAF
KLGB 181143Z 1812/1912 15007KT P6SM OVC025
     FM181800 19009KT P6SM OVC035
     FM190400 VRB03KT P6SM OVC025=



000
FTUS46 KLOX 181100 RRA
TAFLAX
TAF
KLAX 181143Z 1812/1918 12007KT P6SM OVC027
     FM181700 18010KT P6SM OVC035
     FM182000 25012KT P6SM BKN035
     FM190500 26007KT P6SM OVC025
     FM191300 VRB03KT P6SM OVC025=



000
FTUS46 KLOX 181100 RRA
TAFSBA
TAF
KSBA 181143Z 1812/1912 VRB03KT P6SM OVC024
     FM181800 22005KT P6SM OVC025
     FM182200 27007KT P6SM BKN035
     FM190400 VRB03KT P6SM OVC025=



000
FTUS46 KLOX 181100 RRA
TAFBUR
TAF
KBUR 181143Z 1812/1912 16005KT P6SM OVC016
     FM181800 18006KT P6SM OVC025
     FM182200 18008KT P6SM BKN035
     FM190400 VRB03KT P6SM OVC025=



000
FTUS46 KLOX 181100 RRA
TAFVNY
TAF
KVNY 181143Z 1812/1912 15005KT P6SM OVC017
     FM181800 17006KT P6SM OVC035
     FM182200 18008KT P6SM BKN035
     FM190400 VRB03KT P6SM OVC025=



000
FTUS46 KLOX 181100 RRA
TAFSBP
TAF
KSBP 181143Z 1812/1912 VRB03KT P6SM OVC012
     FM181800 23007KT P6SM OVC015
     FM182100 30015KT P6SM BKN020 BKN200
     FM190400 30008KT P6SM OVC015
     FM190700 VRB03KT P6SM OVC015=



000
FTUS46 KLOX 181100 RRA
TAFPRB
TAF
KPRB 181143Z 1812/1912 VRB03KT P6SM BKN200
     FM181400 VRB03KT P6SM OVC012
     FM181700 VRB03KT P6SM SCT015 BKN200
     FM182200 22012KT P6SM BKN200
     FM190500 VRB03KT P6SM BKN200
     FM191000 VRB03KT P6SM BKN015=



000
FTUS46 KLOX 181100 AAA
TAFVNY
TAF AMD
KVNY 181108Z 1811/1906 15007KT P6SM OVC017
     FM181400 14006KT P6SM OVC025
     FM181800 18006KT P6SM OVC035
     FM182200 18008KT P6SM BKN035
     FM190400 VRB03KT P6SM OVC025=



000
FTUS46 KLOX 181100 AAA
TAFBUR
TAF AMD
KBUR 181108Z 1811/1906 14006KT P6SM OVC015
     FM181400 14006KT P6SM OVC025
     FM181800 18006KT P6SM OVC035
     FM182200 18008KT P6SM BKN035
     FM190400 VRB03KT P6SM OVC025=



000
FTUS46 KLOX 181100 AAC
TAFSMX
TAF AMD
KSMX 181107Z 1811/1906 VRB03KT 6SM BR OVC008
     FM181800 30007KT P6SM BKN020
     FM182100 30015KT P6SM BKN200
     FM190300 30006KT P6SM BKN025=



000
FTUS46 KLOX 181100 AAA
TAFPRB
TAF AMD
KPRB 181106Z 1811/1906 VRB03KT P6SM BKN200
     FM181400 VRB03KT P6SM OVC012
     FM181700 VRB03KT P6SM SCT015 BKN200
     FM182200 22012KT P6SM BKN200
     FM190500 VRB03KT P6SM BKN200=



000
FTUS46 KLOX 180800 AAB
TAFLAX
TAF AMD
KLAX 180826Z 1808/1912 VRB04KT P6SM BKN022
     FM181200 12009KT P6SM OVC028
     FM181800 25010KT P6SM OVC035
     FM182000 25010KT P6SM BKN035
     FM190500 26007KT P6SM OVC025=



000
FTUS46 KLOX 180800 AAA
TAFLAX
TAF AMD
KLAX 180804Z 1808/1912 VRB04KT P6SM SCT022 BKN150
     FM181200 12009KT P6SM OVC028
     FM181800 25010KT P6SM OVC035
     FM182000 25010KT P6SM BKN035
     FM190500 26007KT P6SM OVC025=



000
FTUS46 KLOX 180700 AAA
TAFLGB
TAF AMD
KLGB 180722Z 1807/1906 VRB03KT P6SM OVC030
     FM181000 15006KT P6SM OVC025
     FM181800 19009KT P6SM BKN035
     FM190400 VRB03KT P6SM OVC025=



000
FTUS46 KLOX 180700 AAB
TAFSMX
TAF AMD
KSMX 180721Z 1807/1906 VRB03KT P6SM OVC012
     FM181800 30007KT P6SM BKN020
     FM182100 30015KT P6SM BKN200
     FM190300 30006KT P6SM BKN025=



000
FTUS46 KLOX 180700 AAA
TAFSMX
TAF AMD
KSMX 180720Z 1807/1906 VRB03KT P6SM OVC012
     FM181800 30007KT P6SM BKN020
     FM182100 30015KT P6SM BKN200
     FM190300 30006KT P6SM BKN025=



    US Dept of Commerce
    National Oceanic and Atmospheric Administration
    National Weather Service
    1325 East West Highway
    Silver Spring, MD 20910
    Page Author: NWS Internet Services Team
Disclaimer
Information Quality
Credits
Glossary
Privacy Policy
Freedom of Information Act (FOIA)
About Us
Career Opportunities